TimeCDT,TemperatureF,Dew PointF,Humidity,Sea Level PressureIn,VisibilityMPH,Wind Direction,Wind SpeedMPH,Gust SpeedMPH,PrecipitationIn,Events,Conditions,WindDirDegrees,DateUTC
12:15 AM,71.6,71.6,100,-9999,10.0,ENE,5.8,-,N/A,,Scattered Clouds,70,2012-10-23 05:15:00
12:35 AM,71.6,71.6,100,-9999,10.0,ENE,4.6,-,N/A,,Clear,70,2012-10-23 05:35:00
12:55 AM,71.6,69.8,94,-9999,10.0,ENE,5.8,-,N/A,,Clear,70,2012-10-23 05:55:00
1:15 AM,71.6,69.8,94,-9999,10.0,East,8.1,-,N/A,,Clear,80,2012-10-23 06:15:00
1:35 AM,71.6,69.8,94,-9999,10.0,East,4.6,-,N/A,,Clear,80,2012-10-23 06:35:00
1:55 AM,71.6,69.8,94,-9999,10.0,East,4.6,-,N/A,,Clear,80,2012-10-23 06:55:00
2:15 AM,71.6,69.8,94,-9999,10.0,East,8.1,-,N/A,,Clear,80,2012-10-23 07:15:00
2:35 AM,71.6,68.0,88,-9999,10.0,East,4.6,-,N/A,,Clear,90,2012-10-23 07:35:00
2:55 AM,71.6,68.0,88,-9999,10.0,East,4.6,-,N/A,,Unknown,90,2012-10-23 07:55:00
3:15 AM,71.6,68.0,88,-9999,10.0,East,4.6,-,N/A,,Unknown,90,2012-10-23 08:15:00
3:55 AM,69.8,68.0,94,-9999,10.0,Calm,Calm,-,N/A,,Unknown,0,2012-10-23 08:55:00
4:15 AM,69.8,68.0,94,-9999,10.0,Calm,Calm,-,N/A,,Clear,0,2012-10-23 09:15:00
4:55 AM,64.4,64.4,100,-9999,10.0,NNE,3.5,-,N/A,,Clear,20,2012-10-23 09:55:00
5:15 AM,64.4,64.4,100,-9999,10.0,NNE,4.6,-,N/A,,Clear,30,2012-10-23 10:15:00
5:35 AM,66.2,66.2,100,-9999,10.0,NNE,4.6,-,N/A,,Clear,20,2012-10-23 10:35:00
5:55 AM,66.2,66.2,100,-9999,10.0,NNE,3.5,-,N/A,,Clear,20,2012-10-23 10:55:00
6:35 AM,66.2,66.2,100,-9999,10.0,NNE,3.5,-,N/A,,Clear,20,2012-10-23 11:35:00
6:55 AM,66.2,66.2,100,-9999,10.0,North,4.6,-,N/A,,Scattered Clouds,10,2012-10-23 11:55:00
7:35 AM,68.0,68.0,100,-9999,10.0,North,4.6,-,N/A,,Mostly Cloudy,10,2012-10-23 12:35:00
7:55 AM,69.8,69.8,100,-9999,10.0,North,5.8,-,N/A,,Overcast,10,2012-10-23 12:55:00
8:15 AM,71.6,71.6,100,-9999,10.0,NNE,5.8,-,N/A,,Scattered Clouds,20,2012-10-23 13:15:00
8:35 AM,73.4,71.6,94,-9999,10.0,NNE,6.9,-,N/A,,Clear,20,2012-10-23 13:35:00
8:55 AM,73.4,73.4,100,-9999,10.0,NNE,5.8,-,N/A,,Clear,20,2012-10-23 13:55:00
9:15 AM,75.2,73.4,94,-9999,10.0,NNE,6.9,-,N/A,,Clear,30,2012-10-23 14:15:00
10:15 AM,80.6,69.8,70,-9999,10.0,NE,8.1,-,N/A,,Clear,50,2012-10-23 15:15:00
10:55 AM,82.4,69.8,66,-9999,10.0,East,6.9,-,N/A,,Clear,90,2012-10-23 15:55:00
11:15 AM,82.4,68.0,62,-9999,10.0,East,6.9,-,N/A,,Clear,80,2012-10-23 16:15:00
11:35 AM,82.4,68.0,62,-9999,10.0,ENE,9.2,-,N/A,,Clear,70,2012-10-23 16:35:00
11:55 AM,84.2,66.2,55,-9999,10.0,East,8.1,-,N/A,,Clear,90,2012-10-23 16:55:00
12:15 PM,84.2,66.2,55,-9999,10.0,East,6.9,-,N/A,,Clear,90,2012-10-23 17:15:00
12:35 PM,84.2,66.2,55,-9999,10.0,East,8.1,-,N/A,,Clear,100,2012-10-23 17:35:00
12:55 PM,84.2,68.0,58,-9999,10.0,ESE,9.2,-,N/A,,Clear,110,2012-10-23 17:55:00
1:15 PM,86.0,68.0,55,-9999,10.0,East,8.1,-,N/A,,Clear,90,2012-10-23 18:15:00
1:35 PM,84.2,68.0,58,-9999,10.0,East,8.1,-,N/A,,Clear,100,2012-10-23 18:35:00
1:55 PM,84.2,68.0,58,-9999,10.0,ENE,8.1,17.3,N/A,,Clear,70,2012-10-23 18:55:00
2:15 PM,84.2,68.0,58,-9999,10.0,East,8.1,-,N/A,,Scattered Clouds,80,2012-10-23 19:15:00
2:35 PM,84.2,66.2,55,-9999,10.0,NE,6.9,-,N/A,,Clear,50,2012-10-23 19:35:00
2:55 PM,86.0,66.2,51,-9999,10.0,North,-9999.0,-,N/A,,Clear,0,2012-10-23 19:55:00
3:15 PM,84.2,66.2,55,-9999,10.0,East,9.2,-,N/A,,Scattered Clouds,90,2012-10-23 20:15:00
3:55 PM,84.2,68.0,58,-9999,10.0,NE,6.9,-,N/A,,Scattered Clouds,40,2012-10-23 20:55:00
4:15 PM,80.6,69.8,70,-9999,10.0,East,6.9,-,N/A,,Mostly Cloudy,80,2012-10-23 21:15:00
4:35 PM,82.4,69.8,66,-9999,10.0,East,10.4,-,N/A,,Mostly Cloudy,100,2012-10-23 21:35:00
4:55 PM,82.4,69.8,66,-9999,10.0,ENE,9.2,-,N/A,,Mostly Cloudy,70,2012-10-23 21:55:00
5:15 PM,80.6,69.8,70,-9999,10.0,ENE,8.1,-,N/A,,Mostly Cloudy,70,2012-10-23 22:15:00
5:35 PM,80.6,69.8,70,-9999,10.0,ENE,6.9,-,N/A,,Scattered Clouds,60,2012-10-23 22:35:00
5:55 PM,78.8,71.6,78,-9999,10.0,ENE,6.9,-,N/A,,Scattered Clouds,70,2012-10-23 22:55:00
6:15 PM,78.8,71.6,78,-9999,10.0,ENE,6.9,-,N/A,,Scattered Clouds,60,2012-10-23 23:15:00
6:35 PM,77.0,71.6,83,-9999,10.0,ENE,5.8,-,N/A,,Clear,60,2012-10-23 23:35:00
6:55 PM,77.0,71.6,83,-9999,10.0,ENE,9.2,-,N/A,,Clear,60,2012-10-23 23:55:00
7:15 PM,77.0,71.6,83,-9999,10.0,ENE,8.1,16.1,N/A,,Mostly Cloudy,60,2012-10-24 00:15:00
7:35 PM,77.0,71.6,83,-9999,10.0,ENE,6.9,-,N/A,,Overcast,60,2012-10-24 00:35:00
7:55 PM,77.0,71.6,83,-9999,10.0,ENE,9.2,-,N/A,,Scattered Clouds,60,2012-10-24 00:55:00
8:15 PM,75.2,73.4,94,-9999,10.0,ENE,8.1,-,N/A,,Scattered Clouds,70,2012-10-24 01:15:00
8:35 PM,75.2,73.4,94,-9999,10.0,ENE,9.2,-,N/A,,Clear,60,2012-10-24 01:35:00
8:55 PM,75.2,73.4,94,-9999,10.0,ENE,9.2,-,N/A,,Scattered Clouds,70,2012-10-24 01:55:00
9:15 PM,75.2,73.4,94,-9999,10.0,ENE,8.1,-,N/A,,Scattered Clouds,60,2012-10-24 02:15:00
9:35 PM,75.2,73.4,94,-9999,10.0,ENE,9.2,-,N/A,,Mostly Cloudy,70,2012-10-24 02:35:00
9:55 PM,75.2,71.6,89,-9999,10.0,ENE,8.1,-,N/A,,Scattered Clouds,70,2012-10-24 02:55:00
10:15 PM,73.4,71.6,94,-9999,10.0,ENE,6.9,-,N/A,,Clear,70,2012-10-24 03:15:00
10:35 PM,73.4,71.6,94,-9999,10.0,ENE,8.1,-,N/A,,Clear,70,2012-10-24 03:35:00
10:55 PM,73.4,73.4,100,-9999,10.0,East,6.9,-,N/A,,Clear,80,2012-10-24 03:55:00
11:15 PM,73.4,73.4,100,-9999,10.0,East,6.9,-,N/A,,Clear,80,2012-10-24 04:15:00
11:35 PM,73.4,71.6,94,-9999,10.0,East,6.9,-,N/A,,Clear,90,2012-10-24 04:35:00
11:55 PM,73.4,71.6,94,-9999,10.0,East,9.2,-,N/A,,Clear,80,2012-10-24 04:55:00